sensor_id;sensor_type;location;lat;lon;timestamp;pressure;altitude;pressure_sealevel;temperature;humidity
58072;BME280;60383;46.626;18.866;2023-05-16T00:01:15;99916.94;;;13.51;100.00
58072;BME280;60383;46.626;18.866;2023-05-16T00:03:41;99910.28;;;13.61;100.00
58072;BME280;60383;46.626;18.866;2023-05-16T00:06:07;99921.41;;;13.67;100.00
58072;BME280;60383;46.626;18.866;2023-05-16T00:08:33;99917.69;;;13.75;100.00
58072;BME280;60383;46.626;18.866;2023-05-16T00:10:59;99915.41;;;13.79;100.00
58072;BME280;60383;46.626;18.866;2023-05-16T00:13:24;99897.66;;;13.81;100.00
58072;BME280;60383;46.626;18.866;2023-05-16T00:15:53;99883.75;;;14.04;100.00
58072;BME280;60383;46.626;18.866;2023-05-16T00:18:22;99896.56;;;13.97;100.00
58072;BME280;60383;46.626;18.866;2023-05-16T00:20:48;99898.22;;;13.77;100.00
58072;BME280;60383;46.626;18.866;2023-05-16T00:23:14;99896.84;;;13.66;100.00
58072;BME280;60383;46.626;18.866;2023-05-16T00:25:40;99903.84;;;13.68;100.00
58072;BME280;60383;46.626;18.866;2023-05-16T00:28:06;99902.31;;;13.51;100.00
58072;BME280;60383;46.626;18.866;2023-05-16T00:30:33;99909.53;;;13.52;100.00
58072;BME280;60383;46.626;18.866;2023-05-16T00:32:58;99909.13;;;13.40;100.00
58072;BME280;60383;46.626;18.866;2023-05-16T00:35:24;99912.56;;;13.42;100.00
58072;BME280;60383;46.626;18.866;2023-05-16T00:37:49;99908.09;;;13.41;100.00
58072;BME280;60383;46.626;18.866;2023-05-16T00:40:15;99899.34;;;13.37;100.00
58072;BME280;60383;46.626;18.866;2023-05-16T00:42:41;99899.34;;;13.37;100.00
58072;BME280;60383;46.626;18.866;2023-05-16T00:45:07;99898.25;;;13.47;100.00
58072;BME280;60383;46.626;18.866;2023-05-16T00:47:32;99894.75;;;13.53;100.00
58072;BME280;60383;46.626;18.866;2023-05-16T00:49:58;99879.75;;;13.55;100.00
58072;BME280;60383;46.626;18.866;2023-05-16T00:52:24;99864.34;;;13.76;100.00
58072;BME280;60383;46.626;18.866;2023-05-16T00:54:51;99879.34;;;13.73;100.00
58072;BME280;60383;46.626;18.866;2023-05-16T00:57:16;99891.31;;;13.81;100.00
58072;BME280;60383;46.626;18.866;2023-05-16T00:59:43;99895.13;;;13.65;100.00
58072;BME280;60383;46.626;18.866;2023-05-16T01:02:10;99891.41;;;13.72;100.00
58072;BME280;60383;46.626;18.866;2023-05-16T01:04:37;99871.78;;;13.76;100.00
58072;BME280;60383;46.626;18.866;2023-05-16T01:07:03;99872.88;;;13.81;100.00
58072;BME280;60383;46.626;18.866;2023-05-16T01:09:29;99875.16;;;13.78;100.00
58072;BME280;60383;46.626;18.866;2023-05-16T01:12:12;99877.19;;;13.69;100.00
58072;BME280;60383;46.626;18.866;2023-05-16T01:27:42;99865.63;;;13.58;100.00
58072;BME280;60383;46.626;18.866;2023-05-16T01:30:16;99866.94;;;13.48;100.00
58072;BME280;60383;46.626;18.866;2023-05-16T01:32:42;99865.91;;;13.49;100.00
58072;BME280;60383;46.626;18.866;2023-05-16T01:35:10;99852.03;;;13.57;100.00
58072;BME280;60383;46.626;18.866;2023-05-16T01:40:50;99847.78;;;13.69;100.00
58072;BME280;60383;46.626;18.866;2023-05-16T01:43:24;99831.69;;;13.73;100.00
58072;BME280;60383;46.626;18.866;2023-05-16T01:45:57;99830.59;;;13.67;100.00
58072;BME280;60383;46.626;18.866;2023-05-16T01:48:31;99818.16;;;13.71;100.00
58072;BME280;60383;46.626;18.866;2023-05-16T01:51:00;99797.00;;;13.72;100.00
58072;BME280;60383;46.626;18.866;2023-05-16T01:53:31;99801.44;;;13.73;100.00
58072;BME280;60383;46.626;18.866;2023-05-16T01:56:00;99812.00;;;13.54;100.00
58072;BME280;60383;46.626;18.866;2023-05-16T01:58:29;99820.97;;;13.41;100.00
58072;BME280;60383;46.626;18.866;2023-05-16T02:01:03;99833.75;;;13.49;100.00
58072;BME280;60383;46.626;18.866;2023-05-16T02:03:30;99832.22;;;13.47;100.00
58072;BME280;60383;46.626;18.866;2023-05-16T02:05:56;99823.00;;;13.54;100.00
58072;BME280;60383;46.626;18.866;2023-05-16T02:08:23;99826.16;;;13.51;100.00
58072;BME280;60383;46.626;18.866;2023-05-16T02:10:48;99825.88;;;13.46;100.00
58072;BME280;60383;46.626;18.866;2023-05-16T02:13:14;99836.66;;;13.33;100.00
58072;BME280;60383;46.626;18.866;2023-05-16T02:15:39;99840.38;;;13.25;100.00
58072;BME280;60383;46.626;18.866;2023-05-16T02:18:05;99827.44;;;13.25;100.00
58072;BME280;60383;46.626;18.866;2023-05-16T02:20:30;99817.78;;;13.30;100.00
58072;BME280;60383;46.626;18.866;2023-05-16T02:22:56;99812.03;;;13.24;100.00
58072;BME280;60383;46.626;18.866;2023-05-16T02:25:21;99812.94;;;13.32;100.00
58072;BME280;60383;46.626;18.866;2023-05-16T02:27:47;99803.59;;;13.41;100.00
58072;BME280;60383;46.626;18.866;2023-05-16T02:30:13;99805.50;;;13.40;100.00
58072;BME280;60383;46.626;18.866;2023-05-16T02:32:39;99804.47;;;13.41;100.00
58072;BME280;60383;46.626;18.866;2023-05-16T02:35:05;99805.84;;;13.37;100.00
58072;BME280;60383;46.626;18.866;2023-05-16T02:37:31;99806.13;;;13.27;100.00
58072;BME280;60383;46.626;18.866;2023-05-16T02:39:57;99819.00;;;13.12;100.00
58072;BME280;60383;46.626;18.866;2023-05-16T02:42:24;99812.28;;;13.15;100.00
58072;BME280;60383;46.626;18.866;2023-05-16T02:44:49;99813.63;;;13.19;100.00
58072;BME280;60383;46.626;18.866;2023-05-16T02:47:15;99815.03;;;13.15;100.00
58072;BME280;60383;46.626;18.866;2023-05-16T02:49:40;99806.31;;;13.26;100.00
58072;BME280;60383;46.626;18.866;2023-05-16T02:52:06;99802.72;;;13.10;100.00
58072;BME280;60383;46.626;18.866;2023-05-16T02:54:31;99794.28;;;13.12;100.00
58072;BME280;60383;46.626;18.866;2023-05-16T02:56:58;99784.91;;;13.21;100.00
58072;BME280;60383;46.626;18.866;2023-05-16T02:59:23;99784.06;;;13.21;100.00
58072;BME280;60383;46.626;18.866;2023-05-16T03:01:48;99790.38;;;13.21;100.00
58072;BME280;60383;46.626;18.866;2023-05-16T03:04:14;99792.00;;;13.31;100.00
58072;BME280;60383;46.626;18.866;2023-05-16T03:06:39;99799.59;;;13.29;100.00
58072;BME280;60383;46.626;18.866;2023-05-16T03:09:05;99807.72;;;13.22;100.00
58072;BME280;60383;46.626;18.866;2023-05-16T03:11:33;99814.00;;;13.16;100.00
58072;BME280;60383;46.626;18.866;2023-05-16T03:13:58;99814.88;;;13.16;100.00
58072;BME280;60383;46.626;18.866;2023-05-16T03:16:24;99810.31;;;13.23;100.00
58072;BME280;60383;46.626;18.866;2023-05-16T03:18:50;99814.47;;;13.19;100.00
58072;BME280;60383;46.626;18.866;2023-05-16T03:21:15;99814.88;;;13.16;100.00
58072;BME280;60383;46.626;18.866;2023-05-16T03:23:41;99812.94;;;13.17;100.00
58072;BME280;60383;46.626;18.866;2023-05-16T03:26:06;99812.19;;;13.08;100.00
58072;BME280;60383;46.626;18.866;2023-05-16T03:28:32;99804.50;;;13.18;100.00
58072;BME280;60383;46.626;18.866;2023-05-16T03:30:57;99799.69;;;13.20;100.00
58072;BME280;60383;46.626;18.866;2023-05-16T03:33:23;99791.34;;;13.14;100.00
58072;BME280;60383;46.626;18.866;2023-05-16T03:35:49;99793.88;;;13.30;100.00
58072;BME280;60383;46.626;18.866;2023-05-16T03:38:15;99795.69;;;13.23;100.00
58072;BME280;60383;46.626;18.866;2023-05-16T03:40:41;99804.69;;;13.32;100.00
58072;BME280;60383;46.626;18.866;2023-05-16T03:43:07;99793.03;;;13.30;100.00
58072;BME280;60383;46.626;18.866;2023-05-16T03:45:33;99809.91;;;13.26;100.00
58072;BME280;60383;46.626;18.866;2023-05-16T03:47:58;99821.78;;;13.27;100.00
58072;BME280;60383;46.626;18.866;2023-05-16T03:50:24;99826.69;;;13.17;100.00
58072;BME280;60383;46.626;18.866;2023-05-16T03:52:50;99824.03;;;13.08;100.00
58072;BME280;60383;46.626;18.866;2023-05-16T03:55:18;99822.84;;;13.11;100.00
58072;BME280;60383;46.626;18.866;2023-05-16T03:57:44;99837.03;;;13.15;100.00
58072;BME280;60383;46.626;18.866;2023-05-16T04:00:10;99845.28;;;13.15;100.00
58072;BME280;60383;46.626;18.866;2023-05-16T04:02:40;99847.84;;;13.16;100.00
58072;BME280;60383;46.626;18.866;2023-05-16T04:05:09;99839.97;;;13.13;100.00
58072;BME280;60383;46.626;18.866;2023-05-16T04:07:36;99847.09;;;13.22;100.00
58072;BME280;60383;46.626;18.866;2023-05-16T04:10:03;99835.81;;;13.17;100.00
58072;BME280;60383;46.626;18.866;2023-05-16T04:12:29;99838.84;;;13.22;100.00
58072;BME280;60383;46.626;18.866;2023-05-16T04:14:54;99839.88;;;13.21;100.00
58072;BME280;60383;46.626;18.866;2023-05-16T04:17:20;99829.63;;;13.30;100.00
58072;BME280;60383;46.626;18.866;2023-05-16T04:19:45;99829.00;;;13.28;100.00
58072;BME280;60383;46.626;18.866;2023-05-16T04:22:11;99817.88;;;13.36;100.00
58072;BME280;60383;46.626;18.866;2023-05-16T04:24:36;99812.28;;;13.30;100.00
58072;BME280;60383;46.626;18.866;2023-05-16T04:27:02;99808.41;;;13.24;100.00
58072;BME280;60383;46.626;18.866;2023-05-16T04:29:29;99816.00;;;13.37;100.00
58072;BME280;60383;46.626;18.866;2023-05-16T04:31:55;99813.63;;;13.34;100.00
58072;BME280;60383;46.626;18.866;2023-05-16T04:34:20;99807.28;;;13.33;100.00
58072;BME280;60383;46.626;18.866;2023-05-16T04:36:47;99792.47;;;13.34;100.00
58072;BME280;60383;46.626;18.866;2023-05-16T04:39:12;99780.13;;;13.30;100.00
58072;BME280;60383;46.626;18.866;2023-05-16T04:41:38;99782.13;;;13.36;100.00
58072;BME280;60383;46.626;18.866;2023-05-16T04:44:03;99802.22;;;13.22;100.00
58072;BME280;60383;46.626;18.866;2023-05-16T04:46:29;99810.50;;;13.37;100.00
58072;BME280;60383;46.626;18.866;2023-05-16T04:48:55;99798.06;;;13.26;100.00
58072;BME280;60383;46.626;18.866;2023-05-16T04:51:21;99809.53;;;13.30;100.00
58072;BME280;60383;46.626;18.866;2023-05-16T04:53:47;99805.56;;;13.32;100.00
58072;BME280;60383;46.626;18.866;2023-05-16T04:56:12;99813.22;;;13.22;100.00
58072;BME280;60383;46.626;18.866;2023-05-16T04:58:38;99829.16;;;13.12;100.00
58072;BME280;60383;46.626;18.866;2023-05-16T05:01:03;99825.28;;;13.21;100.00
58072;BME280;60383;46.626;18.866;2023-05-16T05:03:29;99818.44;;;13.32;100.00
58072;BME280;60383;46.626;18.866;2023-05-16T05:05:55;99816.94;;;13.29;100.00
58072;BME280;60383;46.626;18.866;2023-05-16T05:08:20;99818.91;;;13.35;100.00
58072;BME280;60383;46.626;18.866;2023-05-16T05:10:46;99816.66;;;13.39;100.00
58072;BME280;60383;46.626;18.866;2023-05-16T05:13:11;99812.72;;;13.41;100.00
58072;BME280;60383;46.626;18.866;2023-05-16T05:15:37;99818.56;;;13.38;100.00
58072;BME280;60383;46.626;18.866;2023-05-16T05:18:03;99824.13;;;13.30;100.00
58072;BME280;60383;46.626;18.866;2023-05-16T05:20:28;99816.50;;;13.40;100.00
58072;BME280;60383;46.626;18.866;2023-05-16T05:22:54;99810.59;;;13.44;100.00
58072;BME280;60383;46.626;18.866;2023-05-16T05:25:19;99809.75;;;13.43;100.00
58072;BME280;60383;46.626;18.866;2023-05-16T05:27:45;99819.31;;;13.47;100.00
58072;BME280;60383;46.626;18.866;2023-05-16T05:30:10;99815.00;;;13.38;100.00
58072;BME280;60383;46.626;18.866;2023-05-16T05:32:36;99816.97;;;13.44;100.00
58072;BME280;60383;46.626;18.866;2023-05-16T05:35:02;99819.88;;;13.42;100.00
58072;BME280;60383;46.626;18.866;2023-05-16T05:37:28;99819.41;;;13.39;100.00
58072;BME280;60383;46.626;18.866;2023-05-16T05:39:54;99808.69;;;13.29;100.00
58072;BME280;60383;46.626;18.866;2023-05-16T05:42:20;99815.88;;;13.30;100.00
58072;BME280;60383;46.626;18.866;2023-05-16T05:44:45;99804.63;;;13.40;100.00
58072;BME280;60383;46.626;18.866;2023-05-16T05:47:11;99792.66;;;13.33;100.00
58072;BME280;60383;46.626;18.866;2023-05-16T05:49:37;99790.31;;;13.45;100.00
58072;BME280;60383;46.626;18.866;2023-05-16T05:52:02;99782.06;;;13.45;100.00
58072;BME280;60383;46.626;18.866;2023-05-16T05:54:29;99768.22;;;13.38;100.00
58072;BME280;60383;46.626;18.866;2023-05-16T05:56:56;99767.91;;;13.33;100.00
58072;BME280;60383;46.626;18.866;2023-05-16T05:59:21;99763.16;;;13.26;100.00
58072;BME280;60383;46.626;18.866;2023-05-16T06:01:47;99761.28;;;13.42;100.00
58072;BME280;60383;46.626;18.866;2023-05-16T06:04:19;99759.84;;;13.46;100.00
58072;BME280;60383;46.626;18.866;2023-05-16T06:06:45;99757.03;;;13.39;100.00
58072;BME280;60383;46.626;18.866;2023-05-16T06:09:11;99759.38;;;13.42;100.00
58072;BME280;60383;46.626;18.866;2023-05-16T06:11:38;99765.47;;;13.38;100.00
58072;BME280;60383;46.626;18.866;2023-05-16T06:14:03;99762.88;;;13.36;100.00
58072;BME280;60383;46.626;18.866;2023-05-16T06:16:29;99767.00;;;13.40;100.00
58072;BME280;60383;46.626;18.866;2023-05-16T06:18:55;99764.41;;;13.39;100.00
58072;BME280;60383;46.626;18.866;2023-05-16T06:21:20;99758.63;;;13.49;100.00
58072;BME280;60383;46.626;18.866;2023-05-16T06:23:46;99772.38;;;13.49;100.00
58072;BME280;60383;46.626;18.866;2023-05-16T06:26:12;99779.19;;;13.53;100.00
58072;BME280;60383;46.626;18.866;2023-05-16T06:28:37;99775.97;;;13.49;100.00
58072;BME280;60383;46.626;18.866;2023-05-16T06:31:03;99769.03;;;13.53;100.00
58072;BME280;60383;46.626;18.866;2023-05-16T06:33:28;99767.25;;;13.46;100.00
58072;BME280;60383;46.626;18.866;2023-05-16T06:35:53;99770.28;;;13.51;100.00
58072;BME280;60383;46.626;18.866;2023-05-16T06:38:19;99773.97;;;13.58;100.00
58072;BME280;60383;46.626;18.866;2023-05-16T06:40:45;99767.78;;;13.56;100.00
58072;BME280;60383;46.626;18.866;2023-05-16T06:43:10;99762.50;;;13.54;100.00
58072;BME280;60383;46.626;18.866;2023-05-16T06:45:36;99763.25;;;13.48;100.00
58072;BME280;60383;46.626;18.866;2023-05-16T06:48:02;99758.44;;;13.50;100.00
58072;BME280;60383;46.626;18.866;2023-05-16T06:50:28;99757.84;;;13.55;100.00
58072;BME280;60383;46.626;18.866;2023-05-16T06:52:53;99752.63;;;13.60;100.00
58072;BME280;60383;46.626;18.866;2023-05-16T06:55:19;99740.38;;;13.63;100.00
58072;BME280;60383;46.626;18.866;2023-05-16T06:57:45;99746.06;;;13.61;100.00
58072;BME280;60383;46.626;18.866;2023-05-16T07:00:10;99747.31;;;13.58;100.00
58072;BME280;60383;46.626;18.866;2023-05-16T07:02:36;99742.47;;;13.61;100.00
58072;BME280;60383;46.626;18.866;2023-05-16T07:05:02;99730.22;;;13.63;100.00
58072;BME280;60383;46.626;18.866;2023-05-16T07:07:28;99721.59;;;13.66;100.00
58072;BME280;60383;46.626;18.866;2023-05-16T07:09:53;99721.38;;;13.68;100.00
58072;BME280;60383;46.626;18.866;2023-05-16T07:12:19;99702.38;;;13.73;100.00
58072;BME280;60383;46.626;18.866;2023-05-16T07:14:45;99698.78;;;13.72;100.00
58072;BME280;60383;46.626;18.866;2023-05-16T07:17:11;99718.81;;;13.66;100.00
58072;BME280;60383;46.626;18.866;2023-05-16T07:19:37;99719.97;;;13.72;100.00
58072;BME280;60383;46.626;18.866;2023-05-16T07:22:02;99713.22;;;13.74;100.00
58072;BME280;60383;46.626;18.866;2023-05-16T07:24:28;99701.63;;;13.79;100.00
58072;BME280;60383;46.626;18.866;2023-05-16T07:26:54;99700.94;;;13.77;100.00
58072;BME280;60383;46.626;18.866;2023-05-16T07:29:20;99709.09;;;13.85;100.00
58072;BME280;60383;46.626;18.866;2023-05-16T07:31:45;99718.25;;;13.93;100.00
58072;BME280;60383;46.626;18.866;2023-05-16T07:34:11;99725.78;;;13.84;100.00
58072;BME280;60383;46.626;18.866;2023-05-16T07:36:37;99731.59;;;13.96;100.00
58072;BME280;60383;46.626;18.866;2023-05-16T07:39:03;99729.53;;;13.98;100.00
58072;BME280;60383;46.626;18.866;2023-05-16T07:41:29;99731.16;;;13.92;100.00
58072;BME280;60383;46.626;18.866;2023-05-16T07:43:54;99730.38;;;13.98;100.00
58072;BME280;60383;46.626;18.866;2023-05-16T07:46:20;99719.56;;;13.97;100.00
58072;BME280;60383;46.626;18.866;2023-05-16T07:48:45;99723.59;;;14.01;100.00
58072;BME280;60383;46.626;18.866;2023-05-16T07:51:11;99707.75;;;14.03;100.00
58072;BME280;60383;46.626;18.866;2023-05-16T07:53:36;99717.13;;;14.09;100.00
58072;BME280;60383;46.626;18.866;2023-05-16T07:56:02;99721.38;;;13.89;100.00
58072;BME280;60383;46.626;18.866;2023-05-16T07:58:28;99715.56;;;13.99;100.00
58072;BME280;60383;46.626;18.866;2023-05-16T08:00:53;99700.53;;;14.02;100.00
58072;BME280;60383;46.626;18.866;2023-05-16T08:03:19;99705.31;;;14.15;100.00
58072;BME280;60383;46.626;18.866;2023-05-16T08:05:44;99707.66;;;14.18;100.00
58072;BME280;60383;46.626;18.866;2023-05-16T08:08:10;99705.38;;;14.21;100.00
58072;BME280;60383;46.626;18.866;2023-05-16T08:10:35;99721.44;;;14.18;100.00
58072;BME280;60383;46.626;18.866;2023-05-16T08:13:01;99716.34;;;14.15;100.00
58072;BME280;60383;46.626;18.866;2023-05-16T08:15:26;99702.72;;;14.35;100.00
58072;BME280;60383;46.626;18.866;2023-05-16T08:17:55;99694.97;;;14.45;100.00
58072;BME280;60383;46.626;18.866;2023-05-16T08:20:21;99683.81;;;14.53;100.00
58072;BME280;60383;46.626;18.866;2023-05-16T08:22:47;99666.03;;;14.63;100.00
58072;BME280;60383;46.626;18.866;2023-05-16T08:25:12;99680.44;;;14.58;100.00
58072;BME280;60383;46.626;18.866;2023-05-16T08:27:38;99676.28;;;14.69;100.00
58072;BME280;60383;46.626;18.866;2023-05-16T08:30:04;99690.59;;;14.58;100.00
58072;BME280;60383;46.626;18.866;2023-05-16T08:32:30;99702.41;;;14.73;100.00
58072;BME280;60383;46.626;18.866;2023-05-16T08:34:55;99700.09;;;14.77;100.00
58072;BME280;60383;46.626;18.866;2023-05-16T08:37:20;99692.72;;;14.84;100.00
58072;BME280;60383;46.626;18.866;2023-05-16T08:39:46;99694.41;;;14.85;100.00
58072;BME280;60383;46.626;18.866;2023-05-16T08:42:11;99718.72;;;14.75;100.00
58072;BME280;60383;46.626;18.866;2023-05-16T08:44:37;99717.94;;;14.59;100.00
58072;BME280;60383;46.626;18.866;2023-05-16T08:47:23;99722.22;;;14.62;100.00
58072;BME280;60383;46.626;18.866;2023-05-16T08:49:52;99728.69;;;14.47;100.00
58072;BME280;60383;46.626;18.866;2023-05-16T08:52:20;99725.47;;;14.65;100.00
58072;BME280;60383;46.626;18.866;2023-05-16T08:54:51;99719.63;;;14.82;100.00
58072;BME280;60383;46.626;18.866;2023-05-16T08:57:18;99732.13;;;14.78;100.00
58072;BME280;60383;46.626;18.866;2023-05-16T08:59:44;99730.66;;;14.82;100.00
58072;BME280;60383;46.626;18.866;2023-05-16T09:02:10;99729.38;;;14.84;100.00
58072;BME280;60383;46.626;18.866;2023-05-16T09:04:36;99727.59;;;14.70;100.00
58072;BME280;60383;46.626;18.866;2023-05-16T09:07:02;99728.91;;;14.74;100.00
58072;BME280;60383;46.626;18.866;2023-05-16T09:09:28;99729.06;;;14.66;100.00
58072;BME280;60383;46.626;18.866;2023-05-16T09:11:55;99732.66;;;14.66;100.00
58072;BME280;60383;46.626;18.866;2023-05-16T09:14:20;99740.78;;;14.75;100.00
58072;BME280;60383;46.626;18.866;2023-05-16T09:17:02;99726.31;;;14.73;100.00
58072;BME280;60383;46.626;18.866;2023-05-16T09:19:36;99734.00;;;14.77;100.00
58072;BME280;60383;46.626;18.866;2023-05-16T09:22:02;99738.69;;;14.77;100.00
58072;BME280;60383;46.626;18.866;2023-05-16T09:24:27;99735.25;;;14.75;100.00
58072;BME280;60383;46.626;18.866;2023-05-16T09:26:53;99734.22;;;14.76;100.00
58072;BME280;60383;46.626;18.866;2023-05-16T09:29:19;99729.34;;;14.78;100.00
58072;BME280;60383;46.626;18.866;2023-05-16T09:31:44;99723.19;;;14.76;100.00
58072;BME280;60383;46.626;18.866;2023-05-16T09:34:09;99732.13;;;14.84;100.00
58072;BME280;60383;46.626;18.866;2023-05-16T09:36:36;99711.19;;;14.90;100.00
58072;BME280;60383;46.626;18.866;2023-05-16T09:39:02;99703.31;;;14.87;100.00
58072;BME280;60383;46.626;18.866;2023-05-16T09:41:32;99687.34;;;14.76;100.00
58072;BME280;60383;46.626;18.866;2023-05-16T09:43:58;99687.84;;;14.86;100.00
58072;BME280;60383;46.626;18.866;2023-05-16T09:46:25;99677.22;;;14.83;100.00
58072;BME280;60383;46.626;18.866;2023-05-16T09:48:51;99673.03;;;14.94;100.00
58072;BME280;60383;46.626;18.866;2023-05-16T09:51:21;99664.16;;;14.98;100.00
58072;BME280;60383;46.626;18.866;2023-05-16T09:53:46;99667.59;;;15.07;100.00
58072;BME280;60383;46.626;18.866;2023-05-16T09:56:13;99673.09;;;15.14;100.00
58072;BME280;60383;46.626;18.866;2023-05-16T09:58:41;99660.84;;;15.23;100.00
58072;BME280;60383;46.626;18.866;2023-05-16T10:01:08;99657.47;;;15.34;100.00
58072;BME280;60383;46.626;18.866;2023-05-16T10:03:36;99647.72;;;15.32;100.00
58072;BME280;60383;46.626;18.866;2023-05-16T10:06:03;99655.16;;;15.38;100.00
58072;BME280;60383;46.626;18.866;2023-05-16T10:08:31;99660.47;;;15.33;100.00
58072;BME280;60383;46.626;18.866;2023-05-16T10:11:00;99655.13;;;15.25;100.00
58072;BME280;60383;46.626;18.866;2023-05-16T10:13:31;99659.41;;;15.34;100.00
58072;BME280;60383;46.626;18.866;2023-05-16T10:15:58;99653.91;;;15.47;100.00
58072;BME280;60383;46.626;18.866;2023-05-16T10:18:31;99659.06;;;15.64;100.00
58072;BME280;60383;46.626;18.866;2023-05-16T10:21:03;99649.09;;;15.76;100.00
58072;BME280;60383;46.626;18.866;2023-05-16T10:23:30;99647.44;;;15.89;100.00
58072;BME280;60383;46.626;18.866;2023-05-16T10:25:57;99628.91;;;15.76;100.00
58072;BME280;60383;46.626;18.866;2023-05-16T10:28:23;99616.41;;;15.80;100.00
58072;BME280;60383;46.626;18.866;2023-05-16T10:30:50;99615.34;;;16.01;100.00
58072;BME280;60383;46.626;18.866;2023-05-16T10:33:16;99616.84;;;16.10;100.00
58072;BME280;60383;46.626;18.866;2023-05-16T10:35:43;99621.50;;;16.17;100.00
58072;BME280;60383;46.626;18.866;2023-05-16T10:38:10;99623.00;;;16.26;100.00
58072;BME280;60383;46.626;18.866;2023-05-16T10:40:38;99619.38;;;16.25;100.00
58072;BME280;60383;46.626;18.866;2023-05-16T10:43:06;99598.75;;;16.28;100.00
58072;BME280;60383;46.626;18.866;2023-05-16T10:45:33;99604.09;;;16.23;100.00
58072;BME280;60383;46.626;18.866;2023-05-16T10:48:01;99595.78;;;16.23;100.00
58072;BME280;60383;46.626;18.866;2023-05-16T10:50:39;99606.84;;;16.29;100.00
58072;BME280;60383;46.626;18.866;2023-05-16T10:53:13;99612.78;;;16.26;100.00
58072;BME280;60383;46.626;18.866;2023-05-16T10:55:39;99599.13;;;16.45;100.00
58072;BME280;60383;46.626;18.866;2023-05-16T10:58:05;99607.44;;;16.45;100.00
58072;BME280;60383;46.626;18.866;2023-05-16T11:00:30;99602.53;;;16.54;100.00
58072;BME280;60383;46.626;18.866;2023-05-16T11:03:05;99591.63;;;16.66;100.00
58072;BME280;60383;46.626;18.866;2023-05-16T11:05:31;99589.56;;;16.48;100.00
58072;BME280;60383;46.626;18.866;2023-05-16T11:08:06;99597.84;;;16.54;100.00
58072;BME280;60383;46.626;18.866;2023-05-16T11:10:33;99603.78;;;16.58;100.00
58072;BME280;60383;46.626;18.866;2023-05-16T11:13:06;99611.25;;;16.57;100.00
58072;BME280;60383;46.626;18.866;2023-05-16T11:15:32;99599.09;;;16.65;100.00
58072;BME280;60383;46.626;18.866;2023-05-16T11:18:05;99595.91;;;16.61;100.00
58072;BME280;60383;46.626;18.866;2023-05-16T11:20:33;99597.22;;;16.59;100.00
58072;BME280;60383;46.626;18.866;2023-05-16T11:23:19;99596.75;;;16.62;100.00
58072;BME280;60383;46.626;18.866;2023-05-16T11:25:49;99588.88;;;16.66;100.00
58072;BME280;60383;46.626;18.866;2023-05-16T11:28:17;99585.31;;;16.52;100.00
58072;BME280;60383;46.626;18.866;2023-05-16T11:30:50;99590.63;;;16.60;100.00
58072;BME280;60383;46.626;18.866;2023-05-16T11:33:17;99586.38;;;16.57;100.00
58072;BME280;60383;46.626;18.866;2023-05-16T11:36:02;99590.41;;;16.55;100.00
58072;BME280;60383;46.626;18.866;2023-05-16T11:38:30;99593.19;;;16.41;100.00
58072;BME280;60383;46.626;18.866;2023-05-16T11:41:01;99585.59;;;16.37;100.00
58072;BME280;60383;46.626;18.866;2023-05-16T11:43:27;99583.66;;;16.37;100.00
58072;BME280;60383;46.626;18.866;2023-05-16T11:45:55;99584.91;;;16.48;100.00
58072;BME280;60383;46.626;18.866;2023-05-16T11:48:24;99577.44;;;16.49;100.00
58072;BME280;60383;46.626;18.866;2023-05-16T11:50:49;99568.50;;;16.53;100.00
58072;BME280;60383;46.626;18.866;2023-05-16T11:53:15;99560.59;;;16.70;100.00
58072;BME280;60383;46.626;18.866;2023-05-16T11:55:40;99562.06;;;16.73;100.00
58072;BME280;60383;46.626;18.866;2023-05-16T11:58:06;99558.88;;;16.76;100.00
58072;BME280;60383;46.626;18.866;2023-05-16T12:00:32;99547.16;;;16.81;100.00
58072;BME280;60383;46.626;18.866;2023-05-16T12:03:02;99541.41;;;16.82;100.00
58072;BME280;60383;46.626;18.866;2023-05-16T12:05:32;99543.91;;;16.90;100.00
58072;BME280;60383;46.626;18.866;2023-05-16T12:07:57;99540.47;;;17.02;100.00
58072;BME280;60383;46.626;18.866;2023-05-16T12:10:24;99538.94;;;17.06;100.00
58072;BME280;60383;46.626;18.866;2023-05-16T12:12:50;99542.09;;;17.16;100.00
58072;BME280;60383;46.626;18.866;2023-05-16T12:15:17;99545.69;;;17.17;100.00
58072;BME280;60383;46.626;18.866;2023-05-16T12:17:43;99538.09;;;17.12;100.00
58072;BME280;60383;46.626;18.866;2023-05-16T12:20:10;99541.28;;;17.09;100.00
58072;BME280;60383;46.626;18.866;2023-05-16T12:22:39;99537.44;;;17.10;100.00
58072;BME280;60383;46.626;18.866;2023-05-16T12:25:33;99526.16;;;17.12;100.00
58072;BME280;60383;46.626;18.866;2023-05-16T12:28:06;99528.44;;;17.21;100.00
58072;BME280;60383;46.626;18.866;2023-05-16T12:30:32;99520.25;;;17.33;100.00
58072;BME280;60383;46.626;18.866;2023-05-16T12:33:16;99514.00;;;17.45;100.00
58072;BME280;60383;46.626;18.866;2023-05-16T12:35:43;99503.78;;;17.45;100.00
58072;BME280;60383;46.626;18.866;2023-05-16T12:38:11;99506.75;;;17.44;100.00
58072;BME280;60383;46.626;18.866;2023-05-16T12:40:39;99502.03;;;17.51;100.00
58072;BME280;60383;46.626;18.866;2023-05-16T12:43:15;99507.78;;;17.49;100.00
58072;BME280;60383;46.626;18.866;2023-05-16T12:45:41;99509.88;;;17.54;100.00
58072;BME280;60383;46.626;18.866;2023-05-16T12:48:13;99506.72;;;17.50;100.00
58072;BME280;60383;46.626;18.866;2023-05-16T12:50:40;99495.81;;;17.55;100.00
58072;BME280;60383;46.626;18.866;2023-05-16T12:53:11;99498.41;;;17.50;100.00
58072;BME280;60383;46.626;18.866;2023-05-16T12:55:37;99498.81;;;17.54;100.00